Time;durP1;ratioP1;P1;durP2;ratioP2;P2;SDS_P1;SDS_P2;PMS_P1;PMS_P2;Temp;Humidity;BMP_temperature;BMP_pressure;BME280_temperature;BME280_humidity;BME280_pressure;Samples;Min_cycle;Max_cycle;Signal;HPM_P1;HPM_P2
2023/04/02 00:00:10;;;;;;;7.05;3.25;;;;;;;;;;5013710;28;20474;-64
2023/04/02 00:02:47;;;;;;;8.55;3.00;;;;;;;;;;5014044;28;20388;-63
2023/04/02 00:05:19;;;;;;;6.03;3.13;;;;;;;;;;5013347;28;20022;-63
2023/04/02 00:07:49;;;;;;;6.50;3.45;;;;;;;;;;5013593;28;20433;-64
2023/04/02 00:10:26;;;;;;;6.88;3.30;;;;;;;;;;5012657;28;20042;-63
2023/04/02 00:13:15;;;;;;;7.35;3.10;;;;;;;;;;5013497;28;20034;-63
2023/04/02 00:15:42;;;;;;;6.97;3.15;;;;;;;;;;4985681;28;20573;-63
2023/04/02 00:18:18;;;;;;;9.18;3.17;;;;;;;;;;5013575;28;20382;-64
2023/04/02 00:20:52;;;;;;;8.52;3.83;;;;;;;;;;5013299;28;20030;-63
2023/04/02 00:23:18;;;;;;;6.80;3.35;;;;;;;;;;5012834;28;20025;-63
2023/04/02 00:25:45;;;;;;;7.70;3.50;;;;;;;;;;5013206;28;20552;-63
2023/04/02 00:28:15;;;;;;;9.25;3.75;;;;;;;;;;5013404;28;20034;-63
2023/04/02 00:30:47;;;;;;;8.60;3.83;;;;;;;;;;5012604;28;20528;-63
2023/04/02 00:33:17;;;;;;;7.55;3.03;;;;;;;;;;5012910;28;20021;-63
2023/04/02 00:35:44;;;;;;;6.72;3.10;;;;;;;;;;5013211;28;20057;-63
2023/04/02 00:38:42;;;;;;;7.78;3.35;;;;;;;;;;5013314;28;20022;-64
2023/04/02 00:41:12;;;;;;;7.45;3.40;;;;;;;;;;5001915;28;20059;-63
2023/04/02 00:43:38;;;;;;;9.23;3.80;;;;;;;;;;5012976;28;20121;-64
2023/04/02 00:46:14;;;;;;;7.28;3.75;;;;;;;;;;5012578;28;20095;-63
2023/04/02 00:48:52;;;;;;;7.03;3.45;;;;;;;;;;5013188;28;20025;-63
2023/04/02 00:51:24;;;;;;;8.60;3.75;;;;;;;;;;5012182;28;20037;-63
2023/04/02 00:53:51;;;;;;;7.20;3.13;;;;;;;;;;5012746;28;20057;-63
2023/04/02 00:56:25;;;;;;;6.50;3.40;;;;;;;;;;5012350;28;20109;-63
2023/04/02 00:58:55;;;;;;;7.13;3.58;;;;;;;;;;5012568;28;20537;-63
2023/04/02 01:01:23;;;;;;;7.90;3.38;;;;;;;;;;5011780;28;20520;-63
2023/04/02 01:03:57;;;;;;;5.68;2.85;;;;;;;;;;5012430;28;20108;-63
2023/04/02 01:06:24;;;;;;;6.63;3.30;;;;;;;;;;5011278;28;20034;-63
2023/04/02 01:08:50;;;;;;;7.22;3.17;;;;;;;;;;5012152;28;20087;-63
2023/04/02 01:11:22;;;;;;;6.38;3.72;;;;;;;;;;5012102;28;20113;-63
2023/04/02 01:14:11;;;;;;;7.57;3.45;;;;;;;;;;5012402;28;20021;-64
2023/04/02 01:16:37;;;;;;;8.05;3.72;;;;;;;;;;5012657;28;20029;-63
2023/04/02 01:19:21;;;;;;;7.45;3.63;;;;;;;;;;5012235;28;20371;-63
2023/04/02 01:21:53;;;;;;;8.55;3.70;;;;;;;;;;5011662;28;20026;-63
2023/04/02 01:24:20;;;;;;;6.22;2.80;;;;;;;;;;5011751;28;20026;-63
2023/04/02 01:26:52;;;;;;;6.35;3.08;;;;;;;;;;5012140;28;20101;-63
2023/04/02 01:29:38;;;;;;;4.18;2.92;;;;;;;;;;5011976;28;20036;-63
2023/04/02 01:32:06;;;;;;;7.47;3.58;;;;;;;;;;5011804;28;20052;-63
2023/04/02 01:34:32;;;;;;;8.68;3.72;;;;;;;;;;5011802;28;20080;-62
2023/04/02 01:36:58;;;;;;;7.25;3.83;;;;;;;;;;5011291;28;20025;-63
2023/04/02 01:39:41;;;;;;;9.48;3.60;;;;;;;;;;5011729;28;20025;-63
2023/04/02 01:42:17;;;;;;;8.02;3.50;;;;;;;;;;5012067;28;20030;-63
2023/04/02 01:44:46;;;;;;;7.45;3.30;;;;;;;;;;5011882;28;20530;-63
2023/04/02 01:47:15;;;;;;;10.57;3.67;;;;;;;;;;5011482;28;20033;-63
2023/04/02 01:49:45;;;;;;;7.78;3.53;;;;;;;;;;5011848;28;20500;-63
2023/04/02 01:52:16;;;;;;;13.63;4.40;;;;;;;;;;5011691;28;20473;-63
2023/04/02 01:54:42;;;;;;;7.13;4.05;;;;;;;;;;5011640;28;20018;-62
2023/04/02 01:57:08;;;;;;;9.23;3.53;;;;;;;;;;5011884;28;20026;-63
2023/04/02 01:59:35;;;;;;;6.32;3.42;;;;;;;;;;5011300;28;20080;-62
2023/04/02 02:02:02;;;;;;;7.50;3.97;;;;;;;;;;5011587;28;20030;-63
2023/04/02 02:04:29;;;;;;;8.05;3.53;;;;;;;;;;5011119;28;20026;-62
2023/04/02 02:06:57;;;;;;;6.35;4.13;;;;;;;;;;5011219;28;20034;-64
2023/04/02 02:09:25;;;;;;;12.48;3.50;;;;;;;;;;5011264;28;20033;-63
2023/04/02 02:11:51;;;;;;;7.28;3.40;;;;;;;;;;5010969;28;20053;-63
2023/04/02 02:14:19;;;;;;;6.05;3.63;;;;;;;;;;5010808;28;20109;-62
2023/04/02 02:16:45;;;;;;;6.97;3.05;;;;;;;;;;5011434;28;20026;-62
2023/04/02 02:19:20;;;;;;;7.05;3.63;;;;;;;;;;5011179;28;20033;-63
2023/04/02 02:21:48;;;;;;;5.97;3.20;;;;;;;;;;5011414;28;20444;-62
2023/04/02 02:24:22;;;;;;;7.30;3.60;;;;;;;;;;5011102;28;20061;-64
2023/04/02 02:26:50;;;;;;;6.35;3.55;;;;;;;;;;5011241;28;20029;-62
2023/04/02 02:29:17;;;;;;;9.68;4.10;;;;;;;;;;5010959;28;20038;-62
2023/04/02 02:31:46;;;;;;;8.15;4.00;;;;;;;;;;5011222;28;20069;-62
2023/04/02 02:34:17;;;;;;;7.30;3.15;;;;;;;;;;5011021;28;20034;-62
2023/04/02 02:36:49;;;;;;;6.95;3.50;;;;;;;;;;5011249;28;20119;-62
2023/04/02 02:39:15;;;;;;;6.70;4.00;;;;;;;;;;5010849;28;20144;-62
2023/04/02 02:41:46;;;;;;;8.38;3.55;;;;;;;;;;5010953;28;20033;-62
2023/04/02 02:44:15;;;;;;;6.07;2.97;;;;;;;;;;5010679;28;20489;-62
2023/04/02 02:46:44;;;;;;;6.47;3.42;;;;;;;;;;5011237;28;20041;-62
2023/04/02 02:49:14;;;;;;;6.53;3.58;;;;;;;;;;5010911;28;20486;-62
2023/04/02 02:51:49;;;;;;;7.18;3.10;;;;;;;;;;5011327;28;20044;-62
2023/04/02 02:54:17;;;;;;;4.45;3.13;;;;;;;;;;5010944;28;20382;-62
2023/04/02 02:56:46;;;;;;;6.53;3.33;;;;;;;;;;5011120;28;20101;-63
2023/04/02 02:59:14;;;;;;;6.22;3.40;;;;;;;;;;5010851;28;20478;-62
2023/04/02 03:01:41;;;;;;;6.40;3.05;;;;;;;;;;5011309;28;20022;-62
2023/04/02 03:04:07;;;;;;;6.70;3.45;;;;;;;;;;5010811;28;20030;-62
2023/04/02 03:06:35;;;;;;;6.70;3.60;;;;;;;;;;5010681;28;20033;-62
2023/04/02 03:09:21;;;;;;;7.60;3.72;;;;;;;;;;5011083;28;20346;-62
2023/04/02 03:12:07;;;;;;;6.57;3.20;;;;;;;;;;5010926;28;20114;-62
2023/04/02 03:14:37;;;;;;;5.47;3.85;;;;;;;;;;4980412;28;20438;-62
2023/04/02 03:17:10;;;;;;;5.90;3.70;;;;;;;;;;5010723;28;20378;-61
2023/04/02 03:19:45;;;;;;;6.55;3.53;;;;;;;;;;5010898;28;20045;-62
2023/04/02 03:22:15;;;;;;;5.70;3.28;;;;;;;;;;5010774;28;20496;-61
2023/04/02 03:24:57;;;;;;;5.10;3.10;;;;;;;;;;5009718;28;20034;-62
2023/04/02 03:27:26;;;;;;;7.00;3.92;;;;;;;;;;5010616;28;20022;-63
2023/04/02 03:29:57;;;;;;;6.10;3.55;;;;;;;;;;5010650;28;20034;-62
2023/04/02 03:32:26;;;;;;;5.45;3.03;;;;;;;;;;5013654;28;20044;-63
2023/04/02 03:34:55;;;;;;;5.97;3.47;;;;;;;;;;5013889;28;20109;-62
2023/04/02 03:37:30;;;;;;;6.07;3.50;;;;;;;;;;5014190;28;20112;-61
2023/04/02 03:40:08;;;;;;;5.35;3.78;;;;;;;;;;5013831;28;20026;-62
2023/04/02 03:43:09;;;;;;;5.18;3.22;;;;;;;;;;5013736;28;20037;-62
2023/04/02 03:45:39;;;;;;;7.20;3.65;;;;;;;;;;4953465;29;20518;-62
2023/04/02 03:48:10;;;;;;;5.20;3.40;;;;;;;;;;5002919;28;20038;-62
2023/04/02 03:50:35;;;;;;;5.75;3.17;;;;;;;;;;5013671;28;20030;-63
2023/04/02 03:53:02;;;;;;;5.68;3.67;;;;;;;;;;5013867;28;20041;-62
2023/04/02 03:55:30;;;;;;;4.20;2.95;;;;;;;;;;5013817;28;20080;-63
2023/04/02 03:58:02;;;;;;;7.00;3.70;;;;;;;;;;5013302;28;20049;-62
2023/04/02 04:00:28;;;;;;;6.97;3.42;;;;;;;;;;5013718;28;20030;-62
2023/04/02 04:02:59;;;;;;;5.88;3.45;;;;;;;;;;5013110;28;20022;-63
2023/04/02 04:05:47;;;;;;;6.82;3.17;;;;;;;;;;5013506;28;20025;-61
2023/04/02 04:08:18;;;;;;;5.97;3.90;;;;;;;;;;5013350;28;20473;-61
2023/04/02 04:10:44;;;;;;;6.60;3.38;;;;;;;;;;5013075;28;20037;-61
2023/04/02 04:13:17;;;;;;;6.70;4.20;;;;;;;;;;5013281;28;20037;-61
2023/04/02 04:16:18;;;;;;;5.90;3.55;;;;;;;;;;5013156;28;20109;-61
2023/04/02 04:18:56;;;;;;;6.28;3.90;;;;;;;;;;4952823;29;20091;-62
2023/04/02 04:21:29;;;;;;;7.40;3.85;;;;;;;;;;4986423;28;20469;-62
2023/04/02 04:23:56;;;;;;;6.53;4.05;;;;;;;;;;4993709;28;20061;-61
2023/04/02 04:26:25;;;;;;;7.00;4.10;;;;;;;;;;4993771;28;20031;-61
2023/04/02 04:29:04;;;;;;;7.93;4.07;;;;;;;;;;4993440;28;20028;-64
2023/04/02 04:31:39;;;;;;;6.15;3.95;;;;;;;;;;4993061;28;20049;-61
2023/04/02 04:34:10;;;;;;;6.57;4.03;;;;;;;;;;4996129;28;20581;-62
2023/04/02 04:36:46;;;;;;;9.20;4.25;;;;;;;;;;5012812;28;20474;-61
2023/04/02 04:39:14;;;;;;;5.15;3.30;;;;;;;;;;5013035;28;20522;-61
2023/04/02 04:41:41;;;;;;;6.15;3.70;;;;;;;;;;5012748;28;20029;-62
2023/04/02 04:44:16;;;;;;;6.60;4.05;;;;;;;;;;5012908;28;20550;-62
2023/04/02 04:46:47;;;;;;;5.40;3.95;;;;;;;;;;5012708;28;20037;-62
2023/04/02 04:49:16;;;;;;;6.03;3.72;;;;;;;;;;5012341;28;20046;-61
2023/04/02 04:51:58;;;;;;;6.47;3.95;;;;;;;;;;5012672;28;20038;-61
2023/04/02 04:54:28;;;;;;;8.45;4.38;;;;;;;;;;5012513;28;20479;-63
2023/04/02 04:57:01;;;;;;;5.85;4.28;;;;;;;;;;5011952;28;20061;-61
2023/04/02 04:59:42;;;;;;;6.50;4.32;;;;;;;;;;5012636;28;20109;-62
2023/04/02 05:02:15;;;;;;;6.20;4.15;;;;;;;;;;5012325;28;20022;-62
2023/04/02 05:04:42;;;;;;;7.25;4.35;;;;;;;;;;5012563;28;20022;-62
2023/04/02 05:07:10;;;;;;;6.40;5.13;;;;;;;;;;5012573;28;20029;-61
2023/04/02 05:09:51;;;;;;;6.65;4.10;;;;;;;;;;5012103;28;20049;-61
2023/04/02 05:12:25;;;;;;;8.90;3.95;;;;;;;;;;5011789;28;20030;-62
2023/04/02 05:14:54;;;;;;;8.05;4.10;;;;;;;;;;5012184;28;20506;-62
2023/04/02 05:17:27;;;;;;;5.95;3.83;;;;;;;;;;5012275;28;20390;-62
2023/04/02 05:20:14;;;;;;;5.45;4.60;;;;;;;;;;5011924;28;20026;-63
2023/04/02 05:22:49;;;;;;;6.47;4.50;;;;;;;;;;5012202;28;20017;-61
2023/04/02 05:25:18;;;;;;;6.53;4.45;;;;;;;;;;5012243;28;20096;-61
2023/04/02 05:27:47;;;;;;;6.68;4.25;;;;;;;;;;4993352;28;20061;-61
2023/04/02 05:30:23;;;;;;;5.57;3.95;;;;;;;;;;5012171;28;20034;-61
2023/04/02 05:33:06;;;;;;;6.78;3.75;;;;;;;;;;5011732;28;20041;-61
2023/04/02 05:35:37;;;;;;;7.22;4.43;;;;;;;;;;5011688;28;20029;-61
2023/04/02 05:38:05;;;;;;;6.97;4.53;;;;;;;;;;5011883;28;20032;-62
2023/04/02 05:40:35;;;;;;;6.75;4.40;;;;;;;;;;5011518;28;20026;-61
2023/04/02 05:43:01;;;;;;;6.60;4.47;;;;;;;;;;5011340;28;20486;-61
2023/04/02 05:45:35;;;;;;;7.05;4.28;;;;;;;;;;5011953;28;20437;-61
2023/04/02 05:48:03;;;;;;;7.15;4.13;;;;;;;;;;5011804;28;20038;-61
2023/04/02 05:50:32;;;;;;;6.82;4.72;;;;;;;;;;5011505;28;20080;-61
2023/04/02 05:53:17;;;;;;;6.93;4.28;;;;;;;;;;5011109;28;20176;-61
2023/04/02 05:55:48;;;;;;;6.22;4.03;;;;;;;;;;5011698;28;20022;-61
2023/04/02 05:58:17;;;;;;;5.80;4.28;;;;;;;;;;5011054;28;20108;-62
2023/04/02 06:00:47;;;;;;;6.80;3.88;;;;;;;;;;5012029;28;20121;-63
2023/04/02 06:03:16;;;;;;;8.00;4.43;;;;;;;;;;5011913;28;20030;-62
2023/04/02 06:05:43;;;;;;;6.05;4.47;;;;;;;;;;5011126;28;20036;-62
2023/04/02 06:08:33;;;;;;;5.97;3.88;;;;;;;;;;5011480;28;20026;-62
2023/04/02 06:11:03;;;;;;;8.27;4.63;;;;;;;;;;5011452;28;20033;-61
2023/04/02 06:13:29;;;;;;;4.95;4.13;;;;;;;;;;4993247;28;20026;-61
2023/04/02 06:15:55;;;;;;;6.47;4.30;;;;;;;;;;5011368;28;20061;-64
2023/04/02 06:18:23;;;;;;;6.75;3.92;;;;;;;;;;5011337;28;20061;-61
2023/04/02 06:20:49;;;;;;;5.65;3.97;;;;;;;;;;5011014;28;20028;-61
2023/04/02 06:23:15;;;;;;;6.45;4.30;;;;;;;;;;5011250;28;20033;-61
2023/04/02 06:25:45;;;;;;;6.15;4.65;;;;;;;;;;5011209;28;20030;-62
2023/04/02 06:28:16;;;;;;;7.25;4.53;;;;;;;;;;5011381;28;20409;-65
2023/04/02 06:30:42;;;;;;;7.72;4.65;;;;;;;;;;5011142;28;20065;-61
2023/04/02 06:33:10;;;;;;;5.53;4.13;;;;;;;;;;5011200;28;20053;-62
2023/04/02 06:35:38;;;;;;;7.93;4.78;;;;;;;;;;5010913;28;20026;-60
2023/04/02 06:38:05;;;;;;;8.07;4.78;;;;;;;;;;5011243;28;20022;-62
2023/04/02 06:40:32;;;;;;;6.00;4.30;;;;;;;;;;5010815;28;20589;-61
2023/04/02 06:42:59;;;;;;;6.47;4.43;;;;;;;;;;5010661;28;20034;-61
2023/04/02 06:45:31;;;;;;;6.90;5.00;;;;;;;;;;5010932;28;20026;-62
2023/04/02 06:47:58;;;;;;;6.97;4.10;;;;;;;;;;5011130;28;20061;-63
2023/04/02 06:50:43;;;;;;;8.30;4.38;;;;;;;;;;5011136;28;20439;-63
2023/04/02 06:53:14;;;;;;;6.07;4.30;;;;;;;;;;5011214;28;20040;-61
2023/04/02 06:55:50;;;;;;;8.25;4.57;;;;;;;;;;5011038;28;20028;-61
2023/04/02 06:58:17;;;;;;;8.88;5.18;;;;;;;;;;5010770;28;20548;-63
2023/04/02 07:00:44;;;;;;;9.23;4.40;;;;;;;;;;5011220;28;20446;-62
2023/04/02 07:03:16;;;;;;;5.85;3.92;;;;;;;;;;5011170;28;20433;-62
2023/04/02 07:05:42;;;;;;;6.00;4.00;;;;;;;;;;5011796;28;20060;-63
2023/04/02 07:08:08;;;;;;;6.60;4.72;;;;;;;;;;5013500;28;20022;-60
2023/04/02 07:10:34;;;;;;;7.18;5.05;;;;;;;;;;5014170;28;20068;-61
2023/04/02 07:13:01;;;;;;;5.93;4.50;;;;;;;;;;5016538;28;20033;-62
2023/04/02 07:15:27;;;;;;;7.53;4.93;;;;;;;;;;5034446;28;20052;-60
2023/04/02 07:17:56;;;;;;;10.82;4.50;;;;;;;;;;5034175;28;20033;-62
2023/04/02 07:20:30;;;;;;;5.75;4.25;;;;;;;;;;5034053;28;20393;-61
2023/04/02 07:22:56;;;;;;;7.03;4.43;;;;;;;;;;5033462;28;20030;-64
2023/04/02 07:25:23;;;;;;;5.90;3.80;;;;;;;;;;5014150;28;20030;-61
2023/04/02 07:27:49;;;;;;;10.75;4.90;;;;;;;;;;5014460;28;20044;-61
2023/04/02 07:30:15;;;;;;;5.55;4.22;;;;;;;;;;5014513;28;20037;-61
2023/04/02 07:32:41;;;;;;;5.40;3.90;;;;;;;;;;5014103;28;20029;-60
2023/04/02 07:35:08;;;;;;;7.57;3.80;;;;;;;;;;5017253;28;20029;-60
2023/04/02 07:37:34;;;;;;;5.55;4.13;;;;;;;;;;5013247;28;20482;-63
2023/04/02 07:40:00;;;;;;;5.90;4.40;;;;;;;;;;5014291;28;20032;-62
2023/04/02 07:42:26;;;;;;;8.15;4.72;;;;;;;;;;5013931;28;20045;-60
2023/04/02 07:44:52;;;;;;;7.13;4.15;;;;;;;;;;5013685;28;20101;-61
2023/04/02 07:47:18;;;;;;;8.77;4.05;;;;;;;;;;5014143;28;20030;-60
2023/04/02 07:49:44;;;;;;;5.95;4.18;;;;;;;;;;5013985;28;20025;-61
2023/04/02 07:52:11;;;;;;;5.93;4.55;;;;;;;;;;5013395;28;20046;-64
2023/04/02 07:54:38;;;;;;;5.75;3.97;;;;;;;;;;5013778;28;20564;-60
2023/04/02 07:57:04;;;;;;;8.57;4.28;;;;;;;;;;5014016;28;20444;-66
2023/04/02 07:59:30;;;;;;;6.45;4.38;;;;;;;;;;5013688;28;20029;-63
2023/04/02 08:01:56;;;;;;;9.70;4.63;;;;;;;;;;5012623;28;20034;-64
2023/04/02 08:04:23;;;;;;;7.95;5.07;;;;;;;;;;5013804;28;20030;-61
2023/04/02 08:06:51;;;;;;;6.95;4.75;;;;;;;;;;5013248;28;20026;-61
2023/04/02 08:09:17;;;;;;;8.20;4.00;;;;;;;;;;5013989;28;20095;-60
2023/04/02 08:11:45;;;;;;;11.30;4.72;;;;;;;;;;5013616;28;20494;-59
2023/04/02 08:14:11;;;;;;;8.18;5.05;;;;;;;;;;5013602;28;20033;-60
2023/04/02 08:17:03;;;;;;;6.93;4.60;;;;;;;;;;5012944;28;20055;-61
2023/04/02 08:19:29;;;;;;;7.68;4.82;;;;;;;;;;5009770;28;20050;-59
2023/04/02 08:21:56;;;;;;;8.10;4.85;;;;;;;;;;5012749;28;20382;-60
2023/04/02 08:24:22;;;;;;;10.00;5.60;;;;;;;;;;5013413;28;20034;-60
2023/04/02 08:26:49;;;;;;;9.90;5.07;;;;;;;;;;5013006;28;20026;-60
2023/04/02 08:29:15;;;;;;;12.18;6.88;;;;;;;;;;5013567;28;20478;-61
2023/04/02 08:31:41;;;;;;;11.98;6.13;;;;;;;;;;5012893;28;20035;-60
2023/04/02 08:34:07;;;;;;;14.32;7.05;;;;;;;;;;5013192;28;20029;-61
2023/04/02 08:36:35;;;;;;;12.15;6.53;;;;;;;;;;5012537;28;20108;-62
2023/04/02 08:39:03;;;;;;;12.90;6.43;;;;;;;;;;5013091;28;20328;-60
2023/04/02 08:41:31;;;;;;;14.68;7.50;;;;;;;;;;5012746;28;20040;-59
2023/04/02 08:44:09;;;;;;;14.38;6.78;;;;;;;;;;5012728;28;20041;-63
2023/04/02 08:46:37;;;;;;;15.32;8.23;;;;;;;;;;5011956;28;20030;-60
2023/04/02 08:49:10;;;;;;;15.57;7.30;;;;;;;;;;5012909;28;20060;-60
2023/04/02 08:51:37;;;;;;;18.20;6.90;;;;;;;;;;5012437;28;20065;-64
2023/04/02 08:54:11;;;;;;;13.15;6.55;;;;;;;;;;5012755;28;20018;-62
2023/04/02 08:56:43;;;;;;;15.13;7.15;;;;;;;;;;5030256;28;20155;-60
2023/04/02 08:59:18;;;;;;;15.25;7.20;;;;;;;;;;5032468;28;20562;-57
2023/04/02 09:02:07;;;;;;;17.27;7.40;;;;;;;;;;5023043;28;20101;-56
2023/04/02 09:04:33;;;;;;;13.02;6.90;;;;;;;;;;5004534;28;20034;-59
2023/04/02 09:06:59;;;;;;;18.00;7.03;;;;;;;;;;5012341;28;20544;-61
2023/04/02 09:09:26;;;;;;;19.45;7.50;;;;;;;;;;5012590;28;20026;-59
2023/04/02 09:12:02;;;;;;;16.85;7.03;;;;;;;;;;5012289;28;20061;-58
2023/04/02 09:14:35;;;;;;;18.00;7.60;;;;;;;;;;5012468;28;20053;-59
2023/04/02 09:17:08;;;;;;;13.02;7.32;;;;;;;;;;5011982;28;20042;-63
2023/04/02 09:19:38;;;;;;;18.23;6.72;;;;;;;;;;5012231;28;20060;-60
2023/04/02 09:22:05;;;;;;;17.40;6.88;;;;;;;;;;5012282;28;20026;-62
2023/04/02 09:24:31;;;;;;;14.52;7.38;;;;;;;;;;5011733;28;20033;-67
2023/04/02 09:26:57;;;;;;;17.00;6.30;;;;;;;;;;5022893;28;20460;-62
2023/04/02 09:29:26;;;;;;;17.08;6.57;;;;;;;;;;5019241;28;20030;-58
2023/04/02 09:31:59;;;;;;;12.18;6.75;;;;;;;;;;5013786;28;20034;-64
2023/04/02 09:34:30;;;;;;;11.80;6.18;;;;;;;;;;5023561;28;20547;-63
2023/04/02 09:36:56;;;;;;;14.05;6.07;;;;;;;;;;5014894;28;20034;-60
2023/04/02 09:39:25;;;;;;;14.30;6.47;;;;;;;;;;5028953;28;20413;-60
2023/04/02 09:41:51;;;;;;;12.85;6.32;;;;;;;;;;5020084;28;20065;-70
2023/04/02 09:44:17;;;;;;;13.15;6.90;;;;;;;;;;5014362;28;20421;-64
2023/04/02 09:46:48;;;;;;;12.25;6.13;;;;;;;;;;5015075;28;20037;-58
2023/04/02 09:49:16;;;;;;;9.80;6.13;;;;;;;;;;5015812;28;20092;-58
2023/04/02 09:51:42;;;;;;;13.50;6.13;;;;;;;;;;5020922;28;20037;-64
2023/04/02 09:54:13;;;;;;;8.55;6.05;;;;;;;;;;5017459;28;20030;-57
2023/04/02 09:56:40;;;;;;;10.18;6.03;;;;;;;;;;5013034;28;20038;-71
2023/04/02 09:59:06;;;;;;;8.60;5.35;;;;;;;;;;5013674;28;20017;-64
2023/04/02 10:01:34;;;;;;;10.05;5.78;;;;;;;;;;5016417;28;20032;-67
2023/04/02 10:04:02;;;;;;;9.07;5.00;;;;;;;;;;5023326;28;20014;-65
2023/04/02 10:06:29;;;;;;;9.93;5.78;;;;;;;;;;5012942;28;20038;-71
2023/04/02 10:08:55;;;;;;;9.82;5.53;;;;;;;;;;5013244;28;20072;-64
2023/04/02 10:11:32;;;;;;;8.25;5.43;;;;;;;;;;5012400;28;20034;-68
2023/04/02 10:14:01;;;;;;;9.15;6.00;;;;;;;;;;5012058;28;20085;-69
2023/04/02 10:16:36;;;;;;;9.70;5.40;;;;;;;;;;5014941;28;20428;-59
2023/04/02 10:19:06;;;;;;;10.75;5.65;;;;;;;;;;5013210;28;20508;-58
2023/04/02 10:21:34;;;;;;;9.85;5.72;;;;;;;;;;5019380;28;20030;-61
2023/04/02 10:24:01;;;;;;;7.10;5.25;;;;;;;;;;5012629;28;20042;-65
2023/04/02 10:26:27;;;;;;;7.40;4.85;;;;;;;;;;5011180;28;20064;-65
2023/04/02 10:29:08;;;;;;;8.05;5.72;;;;;;;;;;5024049;28;20033;-70
2023/04/02 10:31:40;;;;;;;9.70;5.20;;;;;;;;;;5013998;28;20045;-65
2023/04/02 10:34:12;;;;;;;8.60;5.53;;;;;;;;;;5011696;28;20076;-64
2023/04/02 10:36:38;;;;;;;8.05;5.82;;;;;;;;;;5003220;28;20029;-57
2023/04/02 10:39:08;;;;;;;11.10;5.70;;;;;;;;;;5015979;28;20500;-67
2023/04/02 10:41:41;;;;;;;8.35;5.28;;;;;;;;;;5021986;28;20026;-66
2023/04/02 10:44:19;;;;;;;9.10;5.22;;;;;;;;;;5026084;28;20038;-65
2023/04/02 10:47:04;;;;;;;6.35;5.03;;;;;;;;;;5016470;28;20029;-61
2023/04/02 10:49:39;;;;;;;8.60;5.55;;;;;;;;;;5026939;28;20029;-57
2023/04/02 10:52:15;;;;;;;9.25;5.40;;;;;;;;;;5019352;28;20045;-59
2023/04/02 10:54:55;;;;;;;6.60;4.85;;;;;;;;;;5030314;28;20037;-60
2023/04/02 10:57:27;;;;;;;8.43;5.20;;;;;;;;;;5034662;28;20033;-59
2023/04/02 11:00:14;;;;;;;6.28;5.30;;;;;;;;;;5026527;28;20034;-61
2023/04/02 11:02:58;;;;;;;7.15;5.38;;;;;;;;;;5020258;28;20034;-63
2023/04/02 11:05:35;;;;;;;7.78;5.68;;;;;;;;;;4995291;28;20034;-62
2023/04/02 11:08:04;;;;;;;8.73;5.30;;;;;;;;;;5019869;28;20049;-60
2023/04/02 11:10:33;;;;;;;7.18;5.07;;;;;;;;;;5022804;28;20505;-58
2023/04/02 11:13:03;;;;;;;7.13;5.63;;;;;;;;;;5026402;28;20033;-62
2023/04/02 11:15:29;;;;;;;8.18;5.63;;;;;;;;;;5031504;28;20018;-58
2023/04/02 11:17:55;;;;;;;8.02;5.40;;;;;;;;;;5018659;28;20052;-57
2023/04/02 11:20:42;;;;;;;7.47;4.43;;;;;;;;;;5013071;28;20022;-57
2023/04/02 11:23:12;;;;;;;7.00;5.30;;;;;;;;;;5006063;28;20112;-56
2023/04/02 11:25:38;;;;;;;6.93;5.30;;;;;;;;;;5016170;28;20432;-57
2023/04/02 11:28:22;;;;;;;7.25;5.15;;;;;;;;;;5012920;28;20022;-63
2023/04/02 11:30:48;;;;;;;8.13;5.28;;;;;;;;;;5013282;28;20030;-57
2023/04/02 11:33:38;;;;;;;9.80;4.70;;;;;;;;;;5014019;28;20440;-60
2023/04/02 11:36:06;;;;;;;9.70;6.20;;;;;;;;;;5009156;28;20121;-60
2023/04/02 11:38:49;;;;;;;6.70;5.10;;;;;;;;;;5013067;28;20033;-57
2023/04/02 11:41:35;;;;;;;8.25;5.32;;;;;;;;;;5029106;28;20033;-56
2023/04/02 11:44:01;;;;;;;7.65;5.20;;;;;;;;;;5034035;28;20099;-61
2023/04/02 11:46:35;;;;;;;7.18;5.20;;;;;;;;;;5033724;28;20100;-61
2023/04/02 11:49:20;;;;;;;9.90;5.53;;;;;;;;;;5030269;28;20497;-58
2023/04/02 11:51:48;;;;;;;11.05;5.40;;;;;;;;;;5021904;28;20033;-56
2023/04/02 11:54:23;;;;;;;6.88;5.50;;;;;;;;;;5033674;28;20031;-63
2023/04/02 11:57:21;;;;;;;7.05;5.20;;;;;;;;;;5028021;28;20049;-58
2023/04/02 11:59:47;;;;;;;9.55;5.45;;;;;;;;;;4949498;28;20049;-60
2023/04/02 12:02:15;;;;;;;5.93;5.30;;;;;;;;;;5015259;28;20030;-67
2023/04/02 12:04:53;;;;;;;6.95;5.35;;;;;;;;;;5022431;28;20084;-62
2023/04/02 12:07:33;;;;;;;7.35;5.70;;;;;;;;;;5025912;28;20030;-63
2023/04/02 12:10:01;;;;;;;7.35;5.28;;;;;;;;;;5021692;28;20021;-60
2023/04/02 12:12:31;;;;;;;6.57;5.22;;;;;;;;;;5016732;28;20402;-61
2023/04/02 12:14:57;;;;;;;6.80;5.05;;;;;;;;;;5013698;28;20037;-56
2023/04/02 12:17:31;;;;;;;8.88;5.57;;;;;;;;;;5021710;28;20054;-60
2023/04/02 12:20:03;;;;;;;7.55;6.10;;;;;;;;;;5016308;28;20782;-59
2023/04/02 12:22:30;;;;;;;7.97;5.95;;;;;;;;;;5013666;28;20022;-56
2023/04/02 12:25:07;;;;;;;7.38;5.75;;;;;;;;;;5016212;28;20057;-59
2023/04/02 12:27:36;;;;;;;10.75;6.10;;;;;;;;;;5018408;28;20029;-64
2023/04/02 12:30:14;;;;;;;7.57;5.10;;;;;;;;;;5012264;28;20053;-58
2023/04/02 12:32:40;;;;;;;9.48;5.75;;;;;;;;;;5017561;28;20659;-56
2023/04/02 12:35:07;;;;;;;6.15;5.47;;;;;;;;;;5021211;28;20456;-57
2023/04/02 12:37:33;;;;;;;7.43;6.38;;;;;;;;;;5021798;28;20110;-56
2023/04/02 12:40:01;;;;;;;6.22;5.35;;;;;;;;;;5022045;28;20112;-59
2023/04/02 12:42:27;;;;;;;6.65;5.82;;;;;;;;;;5021703;28;20459;-58
2023/04/02 12:44:53;;;;;;;8.32;5.95;;;;;;;;;;5018261;28;20026;-57
2023/04/02 12:47:20;;;;;;;7.22;6.07;;;;;;;;;;5013262;28;20026;-60
2023/04/02 12:49:46;;;;;;;7.30;5.97;;;;;;;;;;5011921;28;20121;-63
2023/04/02 12:52:14;;;;;;;6.80;5.88;;;;;;;;;;5012469;28;20450;-63
2023/04/02 12:54:45;;;;;;;7.18;6.22;;;;;;;;;;5017900;28;20115;-60
2023/04/02 12:57:30;;;;;;;8.15;6.40;;;;;;;;;;5022999;28;20113;-60
2023/04/02 12:59:56;;;;;;;8.70;5.95;;;;;;;;;;5027289;28;20105;-63
2023/04/02 13:02:22;;;;;;;6.80;6.10;;;;;;;;;;5011252;28;20500;-61
2023/04/02 13:04:49;;;;;;;9.60;6.72;;;;;;;;;;5014460;28;20113;-57
2023/04/02 13:07:17;;;;;;;10.55;6.13;;;;;;;;;;5016657;28;20034;-56
2023/04/02 13:09:46;;;;;;;6.72;5.80;;;;;;;;;;5016849;28;20025;-54
2023/04/02 13:12:25;;;;;;;7.47;6.68;;;;;;;;;;5022042;28;20041;-55
2023/04/02 13:14:53;;;;;;;10.88;6.60;;;;;;;;;;5024732;28;20109;-56
2023/04/02 13:17:37;;;;;;;9.07;7.13;;;;;;;;;;5026161;28;20109;-58
2023/04/02 13:20:22;;;;;;;11.43;6.82;;;;;;;;;;5023703;28;20064;-56
2023/04/02 13:22:48;;;;;;;12.40;6.35;;;;;;;;;;5017877;28;20026;-60
2023/04/02 13:25:14;;;;;;;7.82;6.88;;;;;;;;;;5025029;28;20034;-64
2023/04/02 13:27:40;;;;;;;9.82;7.18;;;;;;;;;;5022692;28;20026;-59
2023/04/02 13:30:08;;;;;;;7.60;6.38;;;;;;;;;;5031017;28;20080;-60
2023/04/02 13:32:35;;;;;;;9.70;6.90;;;;;;;;;;5029159;28;20030;-61
2023/04/02 13:35:00;;;;;;;8.43;7.10;;;;;;;;;;5013824;28;20030;-64
2023/04/02 13:37:26;;;;;;;10.23;7.18;;;;;;;;;;5013246;28;20588;-58
2023/04/02 13:39:52;;;;;;;9.48;7.05;;;;;;;;;;5013965;28;20104;-58
2023/04/02 13:42:18;;;;;;;11.93;7.25;;;;;;;;;;5024025;28;20029;-56
2023/04/02 13:44:46;;;;;;;9.88;7.28;;;;;;;;;;5025552;28;20481;-56
2023/04/02 13:47:15;;;;;;;11.48;7.43;;;;;;;;;;5026677;28;20447;-56
2023/04/02 13:49:41;;;;;;;8.20;7.30;;;;;;;;;;5013260;28;20099;-57
2023/04/02 13:52:10;;;;;;;10.38;6.43;;;;;;;;;;5011176;28;20485;-57
2023/04/02 13:54:39;;;;;;;11.30;6.75;;;;;;;;;;5011430;28;20362;-59
2023/04/02 13:57:06;;;;;;;10.48;7.07;;;;;;;;;;4993985;28;20108;-62
2023/04/02 13:59:32;;;;;;;11.13;6.97;;;;;;;;;;5011903;28;20030;-57
2023/04/02 14:02:01;;;;;;;10.20;7.70;;;;;;;;;;5013710;28;20392;-58
2023/04/02 14:04:29;;;;;;;10.45;6.93;;;;;;;;;;5013927;28;20025;-61
2023/04/02 14:06:58;;;;;;;7.80;6.90;;;;;;;;;;5031235;28;20034;-58
2023/04/02 14:09:29;;;;;;;11.35;7.80;;;;;;;;;;5021738;28;20029;-63
2023/04/02 14:12:02;;;;;;;8.98;7.10;;;;;;;;;;5011440;28;20077;-57
2023/04/02 14:14:47;;;;;;;9.57;7.47;;;;;;;;;;5028663;28;20108;-55
2023/04/02 14:17:31;;;;;;;10.93;7.70;;;;;;;;;;5029547;28;20405;-57
2023/04/02 14:20:03;;;;;;;10.02;8.27;;;;;;;;;;5010579;28;20037;-59
2023/04/02 14:22:35;;;;;;;12.77;8.38;;;;;;;;;;5010343;28;20037;-58
2023/04/02 14:25:20;;;;;;;8.23;7.38;;;;;;;;;;5009778;28;20105;-65
2023/04/02 14:28:04;;;;;;;9.35;7.50;;;;;;;;;;5011064;28;20030;-57
2023/04/02 14:30:30;;;;;;;9.32;7.30;;;;;;;;;;5010889;28;20508;-56
2023/04/02 14:33:15;;;;;;;10.10;7.57;;;;;;;;;;5010997;28;20033;-57
2023/04/02 14:35:42;;;;;;;11.10;8.07;;;;;;;;;;5010641;28;20018;-56
2023/04/02 14:38:14;;;;;;;9.18;8.10;;;;;;;;;;5011178;28;20030;-59
2023/04/02 14:40:50;;;;;;;10.20;7.88;;;;;;;;;;5010998;28;20037;-57
2023/04/02 14:43:22;;;;;;;10.65;8.52;;;;;;;;;;5011109;28;20033;-57
2023/04/02 14:45:52;;;;;;;10.55;8.70;;;;;;;;;;5010891;28;20072;-55
2023/04/02 14:48:37;;;;;;;9.25;7.93;;;;;;;;;;5011078;28;20028;-53
2023/04/02 14:51:15;;;;;;;12.30;8.57;;;;;;;;;;5010330;28;20465;-56
2023/04/02 14:54:01;;;;;;;12.02;8.73;;;;;;;;;;4999437;28;20034;-56
2023/04/02 14:56:28;;;;;;;9.43;8.52;;;;;;;;;;5014389;28;20041;-57
2023/04/02 14:59:01;;;;;;;12.38;8.30;;;;;;;;;;5010855;28;20494;-53
2023/04/02 15:01:33;;;;;;;10.40;9.30;;;;;;;;;;5010868;28;20034;-55
2023/04/02 15:03:59;;;;;;;10.48;9.05;;;;;;;;;;5010491;28;20083;-57